Time;durP1;ratioP1;P1;durP2;ratioP2;P2;SDS_P1;SDS_P2;PMS_P1;PMS_P2;Temp;Humidity;BMP_temperature;BMP_pressure;BME280_temperature;BME280_humidity;BME280_pressure;Samples;Min_cycle;Max_cycle;Signal;HPM_P1;HPM_P2
2023/06/29 00:01:55;;;;;;;8.57;7.97;;;20.90;18.90;;;;;;5037682;28;20466;-78
2023/06/29 00:04:25;;;;;;;8.83;8.33;;;20.90;18.60;;;;;;5039430;28;20169;-79
2023/06/29 00:06:52;;;;;;;8.70;8.10;;;21.00;18.40;;;;;;5038403;28;20848;-78
2023/06/29 00:09:19;;;;;;;9.10;7.97;;;21.10;18.20;;;;;;5039258;28;20466;-78
2023/06/29 00:11:44;;;;;;;8.87;8.37;;;21.10;18.10;;;;;;5037123;28;20412;-78
2023/06/29 00:14:10;;;;;;;8.73;8.23;;;21.20;18.20;;;;;;5039806;28;20749;-78
2023/06/29 00:16:35;;;;;;;8.97;8.47;;;21.20;18.20;;;;;;5037908;28;20183;-78
2023/06/29 00:19:01;;;;;;;8.50;8.00;;;21.20;18.10;;;;;;5037852;28;20235;-78
2023/06/29 00:21:31;;;;;;;9.10;8.50;;;21.30;18.10;;;;;;5039921;28;20277;-77
2023/06/29 00:23:56;;;;;;;7.80;7.50;;;21.30;18.00;;;;;;5041488;28;20199;-79
2023/06/29 00:26:22;;;;;;;8.37;7.87;;;21.30;18.10;;;;;;5040911;28;20479;-78
2023/06/29 00:28:47;;;;;;;9.00;8.37;;;21.30;18.00;;;;;;5038955;28;20180;-79
2023/06/29 00:31:13;;;;;;;8.67;8.17;;;21.30;18.10;;;;;;5034760;28;20697;-78
2023/06/29 00:33:39;;;;;;;9.30;8.63;;;21.30;18.00;;;;;;5033715;28;20200;-78
2023/06/29 00:36:04;;;;;;;8.47;7.97;;;21.30;18.00;;;;;;5036040;28;20177;-78
2023/06/29 00:38:30;;;;;;;8.43;8.03;;;21.30;18.10;;;;;;5034854;28;20204;-78
2023/06/29 00:40:56;;;;;;;8.40;7.90;;;21.30;18.20;;;;;;5035353;28;20185;-78
2023/06/29 00:43:21;;;;;;;9.07;8.57;;;21.30;18.20;;;;;;5036054;28;20227;-78
2023/06/29 00:45:47;;;;;;;8.73;8.13;;;21.30;18.20;;;;;;5036551;28;20234;-78
2023/06/29 00:48:12;;;;;;;8.43;7.90;;;21.30;18.30;;;;;;5035140;28;20188;-78
2023/06/29 00:50:39;;;;;;;8.83;8.33;;;21.30;18.90;;;;;;5035193;28;20191;-78
2023/06/29 00:53:05;;;;;;;9.30;8.77;;;21.30;18.30;;;;;;5035247;28;20292;-78
2023/06/29 00:55:30;;;;;;;8.57;7.97;;;21.30;18.20;;;;;;5036266;28;20439;-78
2023/06/29 00:57:56;;;;;;;9.13;8.33;;;21.30;18.30;;;;;;5036832;28;20466;-77
2023/06/29 01:00:21;;;;;;;8.60;7.90;;;21.30;18.30;;;;;;5037231;28;20165;-79
2023/06/29 01:02:48;;;;;;;8.53;7.90;;;21.30;18.30;;;;;;5035974;28;20192;-78
2023/06/29 01:05:15;;;;;;;9.10;8.43;;;21.20;18.30;;;;;;5035106;28;20195;-78
2023/06/29 01:08:11;;;;;;;9.07;8.37;;;21.20;18.20;;;;;;5036707;28;20421;-77
2023/06/29 01:10:41;;;;;;;8.43;8.03;;;21.20;18.20;;;;;;5036544;28;20795;-77
2023/06/29 01:13:07;;;;;;;9.00;8.50;;;21.20;18.40;;;;;;5034786;28;20466;-77
2023/06/29 01:15:36;;;;;;;8.20;7.70;;;21.20;18.50;;;;;;5027749;28;20527;-78
2023/06/29 01:18:03;;;;;;;8.80;8.30;;;21.10;18.60;;;;;;5018231;28;20946;-79
2023/06/29 01:20:31;;;;;;;8.47;7.97;;;21.10;18.60;;;;;;5023800;28;20770;-78
2023/06/29 01:23:01;;;;;;;8.40;8.00;;;21.10;18.70;;;;;;5034718;28;20791;-79
2023/06/29 01:25:27;;;;;;;9.23;8.73;;;21.10;18.60;;;;;;5037600;28;20411;-79
2023/06/29 01:27:53;;;;;;;8.47;8.00;;;21.10;18.60;;;;;;5035854;28;20426;-79
2023/06/29 01:30:18;;;;;;;8.97;8.37;;;21.10;18.60;;;;;;5037171;28;20419;-78
2023/06/29 01:32:44;;;;;;;9.80;9.17;;;21.10;18.70;;;;;;5036899;28;20738;-79
2023/06/29 01:35:11;;;;;;;8.67;8.17;;;21.10;18.80;;;;;;5038631;28;20701;-79
2023/06/29 01:37:52;;;;;;;9.57;8.83;;;21.10;18.90;;;;;;5040630;28;20451;-79
2023/06/29 01:40:23;;;;;;;8.67;8.17;;;21.10;19.00;;;;;;5040216;28;20431;-78
2023/06/29 01:42:49;;;;;;;8.83;8.30;;;21.00;19.00;;;;;;5037895;28;20494;-79
2023/06/29 01:45:18;;;;;;;8.60;8.00;;;21.00;19.20;;;;;;5041020;28;20438;-78
2023/06/29 01:47:43;;;;;;;8.77;8.17;;;21.00;19.40;;;;;;5044398;28;20195;-79
2023/06/29 01:50:09;;;;;;;8.37;7.90;;;21.00;19.30;;;;;;5040908;28;20419;-79
2023/06/29 01:52:35;;;;;;;9.00;8.40;;;21.00;19.30;;;;;;5038829;28;20192;-79
2023/06/29 01:55:01;;;;;;;9.20;8.60;;;20.90;19.30;;;;;;5037822;28;20469;-77
2023/06/29 01:57:26;;;;;;;9.03;8.53;;;20.90;19.80;;;;;;5038540;28;20280;-79
2023/06/29 01:59:52;;;;;;;8.80;8.30;;;20.80;19.80;;;;;;5038571;28;20173;-79
2023/06/29 02:02:17;;;;;;;9.10;8.50;;;20.80;19.70;;;;;;5037123;28;20192;-79
2023/06/29 02:04:43;;;;;;;10.30;9.50;;;20.80;19.70;;;;;;5038718;28;20597;-79
2023/06/29 02:07:08;;;;;;;9.50;9.00;;;20.90;19.60;;;;;;5038717;28;20184;-79
2023/06/29 02:09:34;;;;;;;9.27;8.67;;;20.90;19.70;;;;;;5038527;28;20176;-79
2023/06/29 02:11:59;;;;;;;9.53;8.80;;;20.80;19.80;;;;;;5036172;28;20233;-79
2023/06/29 02:14:25;;;;;;;9.07;8.53;;;20.80;19.70;;;;;;5036660;28;20188;-79
2023/06/29 02:16:51;;;;;;;8.70;8.30;;;20.80;19.80;;;;;;5037871;28;20180;-78
2023/06/29 02:19:17;;;;;;;9.27;8.67;;;20.80;19.80;;;;;;5038686;28;20252;-78
2023/06/29 02:21:42;;;;;;;8.83;8.40;;;20.80;19.80;;;;;;5036948;28;20522;-79
2023/06/29 02:24:07;;;;;;;9.00;8.60;;;20.80;19.90;;;;;;5041703;28;20254;-79
2023/06/29 02:26:33;;;;;;;9.30;8.80;;;20.80;20.00;;;;;;5040786;28;20184;-78
2023/06/29 02:28:58;;;;;;;9.20;8.73;;;20.80;19.90;;;;;;5040874;28;20543;-79
2023/06/29 02:31:24;;;;;;;9.53;9.03;;;20.70;20.00;;;;;;5040948;28;20184;-79
2023/06/29 02:33:51;;;;;;;9.40;8.80;;;20.70;20.00;;;;;;5041034;28;20203;-79
2023/06/29 02:36:20;;;;;;;8.70;8.30;;;20.70;19.90;;;;;;5040130;28;20184;-77
2023/06/29 02:38:46;;;;;;;10.20;9.50;;;20.70;19.80;;;;;;5040775;28;20533;-79
2023/06/29 02:41:12;;;;;;;9.60;8.90;;;20.70;20.00;;;;;;5045738;28;20481;-79
2023/06/29 02:43:37;;;;;;;9.77;9.07;;;20.70;20.10;;;;;;5044606;28;20204;-78
2023/06/29 02:46:03;;;;;;;9.93;9.37;;;20.60;20.30;;;;;;5029446;28;20606;-79
2023/06/29 02:48:28;;;;;;;9.37;8.77;;;20.60;20.40;;;;;;5019932;28;20239;-79
2023/06/29 02:50:54;;;;;;;9.73;9.00;;;20.60;20.50;;;;;;5030436;28;20188;-79
2023/06/29 02:53:19;;;;;;;8.90;8.50;;;20.60;20.40;;;;;;5039186;28;20200;-79
2023/06/29 02:55:45;;;;;;;9.73;9.10;;;20.60;20.40;;;;;;5040107;28;20200;-79
2023/06/29 02:58:10;;;;;;;9.80;9.13;;;20.60;20.40;;;;;;5039265;28;20244;-79
2023/06/29 03:00:36;;;;;;;9.30;8.70;;;20.60;20.40;;;;;;5039189;28;20624;-77
2023/06/29 03:03:01;;;;;;;9.37;8.87;;;20.60;20.40;;;;;;5037815;28;20260;-78
2023/06/29 03:05:27;;;;;;;9.20;8.67;;;20.60;20.30;;;;;;5040076;28;20173;-79
2023/06/29 03:07:53;;;;;;;10.50;9.90;;;20.50;20.30;;;;;;5037579;28;20662;-78
2023/06/29 03:10:18;;;;;;;9.33;8.83;;;20.50;20.30;;;;;;5038460;28;20662;-78
2023/06/29 03:12:44;;;;;;;10.17;9.57;;;20.50;20.40;;;;;;5038939;28;20315;-78
2023/06/29 03:15:10;;;;;;;9.70;9.20;;;20.50;20.50;;;;;;5038919;28;20180;-78
2023/06/29 03:17:35;;;;;;;10.17;9.67;;;20.50;20.60;;;;;;5038927;28;20683;-79
2023/06/29 03:20:01;;;;;;;10.83;10.13;;;20.50;20.60;;;;;;5037663;28;20438;-78
2023/06/29 03:22:26;;;;;;;9.33;8.93;;;20.50;20.70;;;;;;5038579;28;20244;-79
2023/06/29 03:24:52;;;;;;;10.20;9.60;;;20.40;20.70;;;;;;5037070;28;20260;-79
2023/06/29 03:27:19;;;;;;;9.33;8.83;;;20.40;20.90;;;;;;5037577;28;20244;-79
2023/06/29 03:29:45;;;;;;;11.13;10.50;;;20.40;21.10;;;;;;5037052;28;20418;-79
2023/06/29 03:32:10;;;;;;;10.23;9.73;;;20.40;21.30;;;;;;5038054;28;20439;-78
2023/06/29 03:34:36;;;;;;;10.33;9.73;;;20.40;21.20;;;;;;5036290;28;20921;-78
2023/06/29 03:37:01;;;;;;;10.30;9.70;;;20.30;21.30;;;;;;5037965;28;20332;-78
2023/06/29 03:39:27;;;;;;;10.23;9.70;;;20.20;21.30;;;;;;5036412;28;20554;-77
2023/06/29 03:41:52;;;;;;;9.73;9.23;;;20.30;21.50;;;;;;5036837;28;20179;-79
2023/06/29 03:44:18;;;;;;;11.80;11.10;;;20.20;21.50;;;;;;5037787;28;20169;-78
2023/06/29 03:46:43;;;;;;;10.57;9.90;;;20.20;21.50;;;;;;5021557;28;20185;-78
2023/06/29 03:49:09;;;;;;;9.97;9.17;;;20.20;21.60;;;;;;5016348;28;20633;-79
2023/06/29 03:51:34;;;;;;;10.63;9.93;;;20.20;21.50;;;;;;5018616;28;20189;-79
2023/06/29 03:54:00;;;;;;;10.03;9.43;;;20.30;21.50;;;;;;5017351;28;20212;-78
2023/06/29 03:56:25;;;;;;;10.17;9.67;;;20.20;21.80;;;;;;5018226;28;20192;-78
2023/06/29 03:58:52;;;;;;;10.70;10.00;;;20.20;21.80;;;;;;5017538;28;20205;-78
2023/06/29 04:01:17;;;;;;;10.97;10.37;;;20.20;21.80;;;;;;5017819;28;20502;-78
2023/06/29 04:03:43;;;;;;;10.93;10.33;;;20.20;21.80;;;;;;5017469;28;20938;-79
2023/06/29 04:06:08;;;;;;;11.50;10.90;;;20.20;21.80;;;;;;5017978;28;20177;-79
2023/06/29 04:08:34;;;;;;;11.00;10.30;;;20.20;21.80;;;;;;5016158;28;20243;-78
2023/06/29 04:10:59;;;;;;;11.77;11.07;;;20.20;21.80;;;;;;5017325;28;20173;-78
2023/06/29 04:13:25;;;;;;;12.07;11.07;;;20.20;21.90;;;;;;5016999;28;20217;-78
2023/06/29 04:15:52;;;;;;;11.80;10.97;;;20.20;22.40;;;;;;5019107;28;20177;-78
2023/06/29 04:18:17;;;;;;;11.30;10.80;;;20.20;21.80;;;;;;5018648;28;20205;-78
2023/06/29 04:20:43;;;;;;;11.93;11.17;;;20.20;21.80;;;;;;5012222;28;20466;-76
2023/06/29 04:23:11;;;;;;;10.80;10.23;;;20.20;21.60;;;;;;5012255;28;20200;-75
2023/06/29 04:25:37;;;;;;;11.13;10.53;;;20.20;21.30;;;;;;5010292;28;20196;-76
2023/06/29 04:28:02;;;;;;;10.70;10.10;;;20.20;21.00;;;;;;5006409;28;20934;-76
2023/06/29 04:30:28;;;;;;;11.37;10.67;;;20.00;21.70;;;;;;5007921;28;22225;-77
2023/06/29 04:32:56;;;;;;;10.87;10.13;;;20.00;21.70;;;;;;5011697;28;20201;-77
2023/06/29 04:35:21;;;;;;;11.47;10.87;;;20.00;21.70;;;;;;5015813;28;20169;-78
2023/06/29 04:37:47;;;;;;;11.30;10.70;;;20.10;21.80;;;;;;5018552;28;20466;-78
2023/06/29 04:40:14;;;;;;;10.70;10.20;;;20.10;21.80;;;;;;5018248;28;20176;-79
2023/06/29 04:42:47;;;;;;;11.37;10.77;;;20.10;22.00;;;;;;5017438;28;20428;-78
2023/06/29 04:45:17;;;;;;;12.00;11.00;;;20.20;21.50;;;;;;5016796;28;20626;-79
2023/06/29 04:47:46;;;;;;;11.10;10.50;;;20.20;21.20;;;;;;5018424;28;20499;-79
2023/06/29 04:50:13;;;;;;;11.50;10.80;;;19.90;21.60;;;;;;5019418;28;20507;-79
2023/06/29 04:52:40;;;;;;;12.07;11.37;;;19.80;22.20;;;;;;5019629;28;20497;-80
2023/06/29 04:55:07;;;;;;;10.50;9.70;;;19.70;22.30;;;;;;5019550;28;20423;-80
2023/06/29 04:57:32;;;;;;;11.43;10.70;;;19.70;22.60;;;;;;5019480;28;20455;-80
2023/06/29 04:59:58;;;;;;;11.33;10.20;;;19.80;21.60;;;;;;5017260;28;20412;-78
2023/06/29 05:02:23;;;;;;;10.73;10.13;;;19.70;21.50;;;;;;5018262;28;20683;-79
2023/06/29 05:04:49;;;;;;;11.57;10.90;;;19.60;21.60;;;;;;5016156;28;20228;-79
2023/06/29 05:07:15;;;;;;;12.20;11.00;;;19.50;22.00;;;;;;5013839;28;20189;-75
2023/06/29 05:09:41;;;;;;;11.00;10.37;;;19.50;22.10;;;;;;5011155;28;20185;-78
2023/06/29 05:12:07;;;;;;;11.00;10.20;;;19.70;21.80;;;;;;5017380;28;20487;-81
2023/06/29 05:14:33;;;;;;;12.07;11.40;;;19.80;21.60;;;;;;5017343;28;20556;-80
2023/06/29 05:16:59;;;;;;;11.57;10.53;;;20.00;21.70;;;;;;5017423;28;20419;-80
2023/06/29 05:19:24;;;;;;;10.93;10.23;;;20.00;22.00;;;;;;5017222;28;20197;-78
2023/06/29 05:21:50;;;;;;;11.40;10.53;;;20.10;21.40;;;;;;5014239;28;20188;-79
2023/06/29 05:24:15;;;;;;;11.63;10.93;;;20.10;20.90;;;;;;5016974;28;20177;-80
2023/06/29 05:26:41;;;;;;;11.60;10.80;;;20.20;20.70;;;;;;5017443;28;20544;-79
2023/06/29 05:29:06;;;;;;;11.10;10.40;;;20.20;20.60;;;;;;5017582;28;20188;-80
2023/06/29 05:31:32;;;;;;;11.60;10.90;;;20.30;20.70;;;;;;5017619;28;20238;-78
2023/06/29 05:33:57;;;;;;;10.97;10.30;;;20.30;20.10;;;;;;5016965;28;20296;-79
2023/06/29 05:36:23;;;;;;;10.30;9.80;;;20.30;20.10;;;;;;5018923;28;20651;-80
2023/06/29 05:38:49;;;;;;;11.80;10.70;;;20.30;20.00;;;;;;5018119;28;20201;-79
2023/06/29 05:41:14;;;;;;;10.90;10.30;;;20.20;20.20;;;;;;5017414;28;20189;-81
2023/06/29 05:43:40;;;;;;;10.70;10.00;;;20.10;20.20;;;;;;5015616;28;20209;-81
2023/06/29 05:46:06;;;;;;;10.47;9.77;;;20.10;20.60;;;;;;5015841;28;20177;-77
2023/06/29 05:48:31;;;;;;;10.90;10.30;;;20.20;20.40;;;;;;5016724;28;20177;-78
2023/06/29 05:50:56;;;;;;;10.93;10.17;;;20.40;20.30;;;;;;5015391;28;20468;-80
2023/06/29 05:53:22;;;;;;;10.77;10.07;;;20.40;20.40;;;;;;5015029;28;20574;-81
2023/06/29 05:55:48;;;;;;;10.97;10.27;;;20.50;20.10;;;;;;5017023;28;20188;-80
2023/06/29 05:58:14;;;;;;;11.43;10.63;;;20.60;19.80;;;;;;5019782;28;20205;-79
2023/06/29 06:00:39;;;;;;;10.67;9.97;;;20.60;19.10;;;;;;5020806;28;20616;-80
2023/06/29 06:03:05;;;;;;;10.73;9.80;;;20.60;19.10;;;;;;5019963;28;20193;-83
2023/06/29 06:05:31;;;;;;;10.17;9.57;;;20.70;19.10;;;;;;5021535;28;20185;-81
2023/06/29 06:07:57;;;;;;;11.33;10.63;;;20.80;19.20;;;;;;5030195;28;20156;-78
2023/06/29 06:10:22;;;;;;;12.17;11.07;;;20.80;19.10;;;;;;5020308;28;21008;-79
2023/06/29 06:12:48;;;;;;;11.57;10.97;;;20.90;19.10;;;;;;5028944;28;20216;-78
2023/06/29 06:15:14;;;;;;;10.90;10.30;;;20.90;19.20;;;;;;5022737;28;20186;-79
2023/06/29 06:17:40;;;;;;;10.93;10.33;;;21.00;19.10;;;;;;5026046;28;20692;-79
2023/06/29 06:20:06;;;;;;;10.83;10.03;;;21.00;19.00;;;;;;5020495;28;20207;-79
2023/06/29 06:22:33;;;;;;;10.97;10.23;;;21.10;18.90;;;;;;5024332;28;20431;-80
2023/06/29 06:24:59;;;;;;;10.77;10.07;;;21.10;18.70;;;;;;5021725;28;20403;-81
2023/06/29 06:27:30;;;;;;;11.77;10.00;;;21.10;18.80;;;;;;5025379;28;20479;-81
2023/06/29 06:29:55;;;;;;;11.27;10.67;;;21.10;18.70;;;;;;5039333;28;20181;-80
2023/06/29 06:32:24;;;;;;;10.53;9.53;;;21.20;18.40;;;;;;5018350;28;20439;-78
2023/06/29 06:34:50;;;;;;;10.97;10.27;;;21.30;18.50;;;;;;5019584;28;20231;-80
2023/06/29 06:37:16;;;;;;;10.57;9.87;;;21.40;18.00;;;;;;5020595;28;20455;-80
2023/06/29 06:39:42;;;;;;;11.20;10.50;;;21.30;18.00;;;;;;5020849;28;20416;-78
2023/06/29 06:42:07;;;;;;;9.57;8.97;;;21.40;18.00;;;;;;5019716;28;20198;-79
2023/06/29 06:44:33;;;;;;;10.73;9.70;;;21.40;18.20;;;;;;5018761;28;20177;-77
2023/06/29 06:46:58;;;;;;;11.90;11.00;;;21.50;18.00;;;;;;5018785;28;20188;-79
2023/06/29 06:49:24;;;;;;;12.60;11.30;;;21.50;17.90;;;;;;5020564;28;20177;-77
2023/06/29 06:51:50;;;;;;;13.50;12.60;;;21.60;17.80;;;;;;5018369;28;20181;-78
2023/06/29 06:54:15;;;;;;;10.67;9.97;;;21.70;17.70;;;;;;5016854;28;20420;-77
2023/06/29 06:56:41;;;;;;;12.43;11.63;;;21.70;17.60;;;;;;5015397;28;20185;-77
2023/06/29 06:59:07;;;;;;;12.30;11.50;;;21.80;17.80;;;;;;5016196;28;20239;-77
2023/06/29 07:01:33;;;;;;;12.83;11.80;;;21.80;17.50;;;;;;5013923;28;20179;-78
2023/06/29 07:03:58;;;;;;;12.93;11.80;;;21.90;17.80;;;;;;5014991;28;20443;-79
2023/06/29 07:06:24;;;;;;;12.50;11.50;;;21.90;17.60;;;;;;5018826;28;20192;-77
2023/06/29 07:08:49;;;;;;;11.80;11.10;;;22.00;17.70;;;;;;5016290;28;20669;-77
2023/06/29 07:11:15;;;;;;;12.53;11.83;;;22.00;17.30;;;;;;5020393;28;20178;-76
2023/06/29 07:13:41;;;;;;;12.33;11.40;;;22.10;17.50;;;;;;5017546;28;20258;-77
2023/06/29 07:16:06;;;;;;;12.47;11.77;;;22.20;17.60;;;;;;5018101;28;20666;-75
2023/06/29 07:18:35;;;;;;;12.73;11.97;;;22.30;17.30;;;;;;5015099;28;20616;-77
2023/06/29 07:21:01;;;;;;;12.30;11.40;;;22.30;17.10;;;;;;5014970;28;20169;-77
2023/06/29 07:23:26;;;;;;;13.10;11.80;;;22.40;17.60;;;;;;5014936;28;20447;-77
2023/06/29 07:25:51;;;;;;;12.23;11.47;;;22.40;16.80;;;;;;5014811;28;20182;-75
2023/06/29 07:28:17;;;;;;;12.33;11.50;;;22.50;16.80;;;;;;5014752;28;20192;-77
2023/06/29 07:30:43;;;;;;;12.37;11.53;;;22.60;16.90;;;;;;5014857;28;20173;-77
2023/06/29 07:33:08;;;;;;;12.50;11.27;;;22.60;16.50;;;;;;5014398;28;20247;-77
2023/06/29 07:35:34;;;;;;;12.60;11.77;;;22.60;16.70;;;;;;5014715;28;20174;-77
2023/06/29 07:37:59;;;;;;;11.00;10.40;;;22.70;16.70;;;;;;5012919;28;20679;-77
2023/06/29 07:40:25;;;;;;;13.50;12.47;;;22.70;16.40;;;;;;5014801;28;20547;-78
2023/06/29 07:42:50;;;;;;;13.10;12.10;;;22.70;16.20;;;;;;5014749;28;20216;-77
2023/06/29 07:45:16;;;;;;;12.80;12.00;;;22.80;16.10;;;;;;5014485;28;20170;-77
2023/06/29 07:47:42;;;;;;;12.60;11.90;;;22.70;16.10;;;;;;5012743;28;20187;-77
2023/06/29 07:50:08;;;;;;;11.33;10.73;;;22.70;16.00;;;;;;5014119;28;20718;-77
2023/06/29 07:52:33;;;;;;;12.60;11.80;;;22.80;16.20;;;;;;5013801;28;20269;-77
2023/06/29 07:54:59;;;;;;;12.50;11.60;;;22.90;16.40;;;;;;5015902;28;20445;-77
2023/06/29 07:57:24;;;;;;;11.77;10.97;;;22.90;16.10;;;;;;5015600;28;20213;-77
2023/06/29 07:59:50;;;;;;;10.90;10.10;;;23.00;15.10;;;;;;5011908;28;20676;-77
2023/06/29 08:02:15;;;;;;;12.07;11.17;;;23.10;14.70;;;;;;5014161;28;20296;-76
2023/06/29 08:04:41;;;;;;;11.90;11.10;;;23.20;14.80;;;;;;5015278;28;20188;-77
2023/06/29 08:07:07;;;;;;;11.77;11.07;;;23.40;14.80;;;;;;5019521;28;20562;-77
2023/06/29 08:09:33;;;;;;;11.83;10.90;;;23.50;14.60;;;;;;5016744;28;20562;-78
2023/06/29 08:11:58;;;;;;;10.27;9.67;;;23.50;13.40;;;;;;5015897;28;20435;-77
2023/06/29 08:14:24;;;;;;;11.10;10.20;;;23.50;13.30;;;;;;5015072;28;20181;-76
2023/06/29 08:16:49;;;;;;;11.30;10.50;;;23.50;13.30;;;;;;5014302;28;20188;-77
2023/06/29 08:19:15;;;;;;;10.70;10.10;;;23.50;13.40;;;;;;5013711;28;20205;-76
2023/06/29 08:21:41;;;;;;;10.40;9.90;;;23.70;13.40;;;;;;5011017;28;20177;-77
2023/06/29 08:24:08;;;;;;;10.47;9.87;;;23.70;13.00;;;;;;5012739;28;20576;-79
2023/06/29 08:26:34;;;;;;;11.43;10.33;;;23.70;12.30;;;;;;5016838;28;20907;-78
2023/06/29 08:29:00;;;;;;;11.10;10.50;;;23.80;12.60;;;;;;5014610;28;20595;-76
2023/06/29 08:31:25;;;;;;;10.40;9.87;;;23.80;12.60;;;;;;5016655;28;20416;-77
2023/06/29 08:33:51;;;;;;;11.00;10.20;;;23.80;12.70;;;;;;5015036;28;20547;-78
2023/06/29 08:36:16;;;;;;;10.63;9.93;;;23.80;12.70;;;;;;5016133;28;20169;-77
2023/06/29 08:38:48;;;;;;;10.13;9.63;;;23.80;12.10;;;;;;5016778;28;20217;-77
2023/06/29 08:41:14;;;;;;;9.70;9.20;;;23.90;11.30;;;;;;5015839;28;20176;-77
2023/06/29 08:43:40;;;;;;;9.70;9.20;;;24.00;11.30;;;;;;5013343;28;20436;-78
2023/06/29 08:46:07;;;;;;;10.33;9.93;;;24.10;11.00;;;;;;5016931;28;20214;-79
2023/06/29 08:48:34;;;;;;;9.77;8.80;;;24.10;10.70;;;;;;5016490;28;20431;-77
2023/06/29 08:51:03;;;;;;;10.07;9.57;;;24.20;11.50;;;;;;5014265;28;20451;-78
2023/06/29 08:53:29;;;;;;;9.67;9.17;;;24.30;11.00;;;;;;5016507;28;20444;-78
2023/06/29 08:55:56;;;;;;;8.47;8.07;;;24.40;10.70;;;;;;5020863;28;20416;-78
2023/06/29 08:58:22;;;;;;;9.03;8.40;;;24.40;10.40;;;;;;5017610;28;20552;-78
2023/06/29 09:00:49;;;;;;;9.40;8.43;;;24.50;10.30;;;;;;5014888;28;20841;-77
2023/06/29 09:03:16;;;;;;;8.97;8.57;;;24.60;9.70;;;;;;5012285;28;20466;-78
2023/06/29 09:05:45;;;;;;;10.07;9.47;;;24.60;9.80;;;;;;5013152;28;20873;-76
2023/06/29 09:08:11;;;;;;;9.80;9.20;;;24.70;9.80;;;;;;5013687;28;20432;-78
2023/06/29 09:10:38;;;;;;;9.47;9.07;;;24.70;9.70;;;;;;5016419;28;20423;-78
2023/06/29 09:13:05;;;;;;;10.53;8.53;;;24.90;9.70;;;;;;5014528;28;20456;-77
2023/06/29 09:15:31;;;;;;;8.70;8.27;;;25.00;9.40;;;;;;5019729;28;20480;-78
2023/06/29 09:17:57;;;;;;;9.87;9.20;;;25.00;9.60;;;;;;5019583;28;20451;-76
2023/06/29 09:20:25;;;;;;;9.40;9.00;;;25.10;9.40;;;;;;5014964;28;20451;-77
2023/06/29 09:22:51;;;;;;;9.00;8.50;;;25.10;9.10;;;;;;5014815;28;20193;-77
2023/06/29 09:25:18;;;;;;;9.80;9.20;;;25.30;8.30;;;;;;5017828;28;20763;-76
2023/06/29 09:27:44;;;;;;;9.43;8.83;;;25.30;8.30;;;;;;5013650;28;20416;-77
2023/06/29 09:30:17;;;;;;;8.60;8.20;;;25.50;7.80;;;;;;5013134;28;20412;-77
2023/06/29 09:32:43;;;;;;;8.20;7.80;;;25.60;7.40;;;;;;5015976;28;20193;-78
2023/06/29 09:35:09;;;;;;;9.13;7.97;;;25.40;7.40;;;;;;5021118;28;20435;-76
2023/06/29 09:37:43;;;;;;;8.50;7.73;;;25.50;7.60;;;;;;5035369;28;20274;-77
2023/06/29 09:40:12;;;;;;;8.00;7.60;;;25.50;7.50;;;;;;5036041;28;20410;-78
2023/06/29 09:42:38;;;;;;;7.70;7.40;;;25.50;7.30;;;;;;5036925;28;20530;-78
2023/06/29 09:45:14;;;;;;;12.27;8.43;;;25.60;7.90;;;;;;5020924;28;20788;-79
2023/06/29 09:47:47;;;;;;;8.47;8.07;;;25.70;7.20;;;;;;5015327;28;20942;-79
2023/06/29 09:50:21;;;;;;;7.80;7.50;;;25.70;7.00;;;;;;5023275;28;20423;-79
2023/06/29 09:52:50;;;;;;;6.70;6.40;;;25.60;7.30;;;;;;5021333;28;20436;-77
2023/06/29 09:55:17;;;;;;;8.00;7.40;;;25.60;7.10;;;;;;5020222;28;20922;-77
2023/06/29 09:57:45;;;;;;;7.53;7.20;;;25.60;7.90;;;;;;5014018;28;20463;-78
2023/06/29 10:00:12;;;;;;;7.87;7.57;;;25.70;7.20;;;;;;5020852;28;20419;-78
2023/06/29 10:02:39;;;;;;;8.00;7.40;;;25.70;7.20;;;;;;5028599;28;20443;-77
2023/06/29 10:05:06;;;;;;;8.47;7.60;;;25.70;7.20;;;;;;5016402;28;20551;-78
2023/06/29 10:07:33;;;;;;;7.20;6.80;;;25.80;6.90;;;;;;5016341;28;20420;-78
2023/06/29 10:09:59;;;;;;;8.00;7.60;;;26.00;6.50;;;;;;5020742;28;20427;-79
2023/06/29 10:12:27;;;;;;;7.73;7.43;;;26.10;6.80;;;;;;5016048;28;20456;-79
2023/06/29 10:14:57;;;;;;;8.47;7.93;;;26.20;6.50;;;;;;5022279;28;20416;-78
2023/06/29 10:17:46;;;;;;;7.67;7.17;;;26.30;6.10;;;;;;5022069;28;20456;-77
2023/06/29 10:20:14;;;;;;;8.20;7.80;;;26.40;6.10;;;;;;5023446;28;20423;-77
2023/06/29 10:22:41;;;;;;;8.30;7.80;;;26.50;5.90;;;;;;5033880;28;20439;-77
2023/06/29 10:25:12;;;;;;;7.60;7.20;;;26.70;5.50;;;;;;5035071;28;20411;-78
2023/06/29 10:27:39;;;;;;;8.10;7.57;;;26.80;5.40;;;;;;5034455;28;20462;-78
2023/06/29 10:30:05;;;;;;;7.87;7.57;;;27.00;4.70;;;;;;5033619;28;20415;-78
2023/06/29 10:32:32;;;;;;;9.20;8.30;;;27.10;4.90;;;;;;5032392;28;20929;-77
2023/06/29 10:35:09;;;;;;;8.33;7.93;;;27.20;4.90;;;;;;5024998;28;20431;-78
2023/06/29 10:37:41;;;;;;;7.87;7.37;;;27.50;4.20;;;;;;5032811;28;20461;-76
2023/06/29 10:40:14;;;;;;;7.80;7.50;;;27.50;4.20;;;;;;5026066;28;20933;-77
2023/06/29 10:42:40;;;;;;;7.43;7.13;;;27.40;4.20;;;;;;5031695;28;20438;-77
2023/06/29 10:45:17;;;;;;;7.60;7.20;;;27.30;4.60;;;;;;5034196;28;20815;-77
2023/06/29 10:47:44;;;;;;;8.57;8.07;;;27.30;4.70;;;;;;5035132;28;20255;-77
2023/06/29 10:50:13;;;;;;;9.70;8.90;;;27.30;4.70;;;;;;5026222;28;20485;-77
2023/06/29 10:52:41;;;;;;;7.27;6.97;;;27.30;4.60;;;;;;5034072;28;20485;-78
2023/06/29 10:55:16;;;;;;;6.97;6.67;;;27.20;4.40;;;;;;5036655;28;20427;-78
2023/06/29 10:58:11;;;;;;;10.13;7.50;;;27.10;5.00;;;;;;5037219;28;20485;-78
2023/06/29 11:00:37;;;;;;;8.37;7.97;;;27.00;4.90;;;;;;5036448;28;20431;-78
2023/06/29 11:03:03;;;;;;;8.97;8.37;;;27.00;4.90;;;;;;5019603;28;20440;-77
2023/06/29 11:05:32;;;;;;;8.23;7.57;;;27.10;5.10;;;;;;5020856;28;20427;-77
2023/06/29 11:07:58;;;;;;;8.33;7.90;;;27.10;5.30;;;;;;5035084;28;20184;-78
2023/06/29 11:10:23;;;;;;;8.37;8.00;;;27.20;5.30;;;;;;5037034;28;20438;-77
2023/06/29 11:12:50;;;;;;;7.87;7.57;;;27.30;4.70;;;;;;5034802;28;20285;-78
2023/06/29 11:15:17;;;;;;;9.47;8.97;;;27.40;4.60;;;;;;5036613;28;20192;-77
2023/06/29 11:17:44;;;;;;;8.90;8.50;;;27.50;4.50;;;;;;5033496;28;20466;-77
2023/06/29 11:20:14;;;;;;;9.30;8.70;;;27.60;4.30;;;;;;5025941;28;20515;-77
2023/06/29 11:22:41;;;;;;;9.40;8.97;;;27.70;4.30;;;;;;5035800;28;20492;-78
2023/06/29 11:25:14;;;;;;;9.00;8.50;;;27.70;4.40;;;;;;5036068;28;20404;-78
2023/06/29 11:27:44;;;;;;;9.57;8.93;;;27.90;4.10;;;;;;5036766;28;20741;-78
2023/06/29 11:30:10;;;;;;;8.93;8.43;;;27.90;3.90;;;;;;5025158;28;20427;-79
2023/06/29 11:32:40;;;;;;;9.30;8.60;;;27.80;4.00;;;;;;5014824;28;20448;-78
2023/06/29 11:35:10;;;;;;;9.10;8.50;;;27.70;4.00;;;;;;5016537;28;20468;-79
2023/06/29 11:37:38;;;;;;;9.43;8.93;;;27.80;3.90;;;;;;5015653;28;20460;-78
2023/06/29 11:40:07;;;;;;;9.50;9.10;;;27.90;4.00;;;;;;5017231;28;20760;-79
2023/06/29 11:42:35;;;;;;;9.60;9.00;;;27.80;3.70;;;;;;5014030;28;20432;-78
2023/06/29 11:45:03;;;;;;;8.87;8.47;;;27.70;4.30;;;;;;5015305;28;20424;-78
2023/06/29 11:47:29;;;;;;;9.50;8.90;;;27.60;4.30;;;;;;5018097;28;20412;-78
2023/06/29 11:49:59;;;;;;;10.93;10.23;;;27.50;4.20;;;;;;5014742;28;20427;-78
2023/06/29 11:52:32;;;;;;;8.60;8.20;;;27.40;4.70;;;;;;5013285;28;20448;-78
2023/06/29 11:55:03;;;;;;;10.10;9.50;;;27.30;4.80;;;;;;5014385;28;20437;-78
2023/06/29 11:57:32;;;;;;;9.67;8.97;;;27.40;4.70;;;;;;5015110;28;20455;-78
2023/06/29 11:59:58;;;;;;;9.60;8.90;;;27.40;4.90;;;;;;5015625;28;20420;-77
2023/06/29 12:02:23;;;;;;;9.27;8.77;;;27.40;4.90;;;;;;5012738;28;20444;-78
2023/06/29 12:05:00;;;;;;;8.80;8.27;;;27.30;5.40;;;;;;5014735;28;20188;-77
2023/06/29 12:07:41;;;;;;;9.57;8.93;;;27.40;4.60;;;;;;5016057;28;20232;-78
2023/06/29 12:10:20;;;;;;;10.60;9.70;;;27.50;4.20;;;;;;5014291;28;20787;-77
2023/06/29 12:12:48;;;;;;;9.50;9.00;;;27.60;4.30;;;;;;5012746;28;20863;-76
2023/06/29 12:15:19;;;;;;;9.47;8.70;;;27.50;4.20;;;;;;5013622;28;20570;-77
2023/06/29 12:17:46;;;;;;;9.93;9.33;;;27.50;4.70;;;;;;5013652;28;20464;-78
2023/06/29 12:20:20;;;;;;;9.20;8.60;;;27.60;4.10;;;;;;5012144;28;20420;-78
2023/06/29 12:22:48;;;;;;;10.23;9.53;;;27.90;3.60;;;;;;5012375;28;20957;-78
2023/06/29 12:25:15;;;;;;;10.00;9.20;;;28.00;3.20;;;;;;5006001;28;20444;-77
2023/06/29 12:27:43;;;;;;;9.73;9.13;;;27.80;3.40;;;;;;4993891;28;20409;-77
2023/06/29 12:30:11;;;;;;;10.30;9.50;;;27.70;3.80;;;;;;4994052;28;20445;-77
2023/06/29 12:32:37;;;;;;;9.60;8.90;;;27.60;4.10;;;;;;4992924;28;20448;-77
2023/06/29 12:35:03;;;;;;;10.23;9.60;;;27.50;4.30;;;;;;5003334;28;20424;-78
2023/06/29 12:37:28;;;;;;;10.33;9.63;;;27.40;4.20;;;;;;5013456;28;20216;-78
2023/06/29 12:39:54;;;;;;;9.87;8.90;;;27.30;4.10;;;;;;5014158;28;20906;-77